createdAt,value
2022-08-02T00:00:55.516Z,2.40
2022-08-02T00:01:57.733Z,2.50
2022-08-02T00:02:59.490Z,2.60
2022-08-02T00:04:01.376Z,2.90
2022-08-02T00:05:03.357Z,2.90
2022-08-02T00:06:05.237Z,2.90
2022-08-02T00:07:06.909Z,3.20
2022-08-02T00:08:08.598Z,3.40
2022-08-02T00:09:10.377Z,3.30
2022-08-02T00:10:12.888Z,3.50
2022-08-02T00:11:14.553Z,3.50
2022-08-02T00:12:16.480Z,3.50
2022-08-02T00:13:18.155Z,3.70
2022-08-02T00:14:19.997Z,3.70
2022-08-02T00:15:21.896Z,3.60
2022-08-02T00:16:37.279Z,3.70
2022-08-02T00:17:40.090Z,3.60
2022-08-02T00:18:42.030Z,3.40
2022-08-02T00:19:44.309Z,3.30
2022-08-02T00:20:45.968Z,3.30
2022-08-02T00:21:48.096Z,3.10
2022-08-02T00:22:50.049Z,3.10
2022-08-02T00:24:27.728Z,3.00
2022-08-02T00:25:13.636Z,2.80
2022-08-02T00:26:15.414Z,2.70
2022-08-02T00:27:17.060Z,2.60
2022-08-02T00:28:23.176Z,2.60
2022-08-02T00:29:33.233Z,2.60
2022-08-02T00:30:34.910Z,2.60
2022-08-02T00:31:36.621Z,2.30
2022-08-02T00:32:39.517Z,2.70
2022-08-02T00:34:27.748Z,2.70
2022-08-02T00:35:04.854Z,2.60
2022-08-02T00:36:06.832Z,3.10
2022-08-02T00:37:08.511Z,3.00
2022-08-02T00:38:10.345Z,3.10
2022-08-02T00:39:34.064Z,3.20
2022-08-02T00:40:33.729Z,3.20
2022-08-02T00:41:49.055Z,4.00
2022-08-02T00:43:08.093Z,4.20
2022-08-02T00:44:09.835Z,5.50
2022-08-02T00:45:14.587Z,5.30
2022-08-02T00:46:17.713Z,5.70
2022-08-02T00:47:19.984Z,5.90
2022-08-02T00:48:21.780Z,6.00
2022-08-02T00:49:23.667Z,6.30
2022-08-02T00:50:26.962Z,6.60
2022-08-02T00:51:28.665Z,6.70
2022-08-02T00:52:30.419Z,7.70
2022-08-02T00:53:32.543Z,7.60
2022-08-02T00:54:34.279Z,9.00
2022-08-02T00:55:37.338Z,8.00
2022-08-02T00:56:38.992Z,8.20
2022-08-02T00:57:51.166Z,9.60
2022-08-02T00:58:52.833Z,9.00
2022-08-02T00:59:54.463Z,8.70
2022-08-02T01:01:01.091Z,8.60
2022-08-02T01:02:03.119Z,8.60
2022-08-02T01:03:05.065Z,8.40
2022-08-02T01:04:14.221Z,8.50
2022-08-02T01:05:17.603Z,8.50
2022-08-02T01:06:19.384Z,8.30
2022-08-02T01:07:21.127Z,8.10
2022-08-02T01:08:22.888Z,7.90
2022-08-02T01:09:31.632Z,7.80
2022-08-02T01:10:33.434Z,7.60
2022-08-02T01:13:35.654Z,7.20
2022-08-02T01:14:37.686Z,7.40
2022-08-02T01:15:47.654Z,7.10
2022-08-02T01:16:56.503Z,7.00
2022-08-02T01:18:07.258Z,6.80
2022-08-02T01:19:49.390Z,6.80
2022-08-02T01:21:06.188Z,6.90
2022-08-02T01:22:16.276Z,6.50
2022-08-02T01:23:35.470Z,6.50
2022-08-02T01:24:55.623Z,6.60
2022-08-02T01:26:11.995Z,6.30
2022-08-02T01:27:20.360Z,6.00
2022-08-02T01:28:54.448Z,5.80
2022-08-02T01:30:00.484Z,5.90
2022-08-02T01:31:16.290Z,5.60
2022-08-02T01:32:23.337Z,5.80
2022-08-02T01:33:28.400Z,5.50
2022-08-02T01:34:35.946Z,5.80
2022-08-02T01:35:50.533Z,5.80
2022-08-02T01:36:59.183Z,5.60
2022-08-02T01:38:23.465Z,6.10
2022-08-02T01:39:32.395Z,6.20
2022-08-02T01:40:37.669Z,5.70
2022-08-02T01:41:40.362Z,6.30
2022-08-02T01:42:47.039Z,6.10
2022-08-02T01:43:54.045Z,6.30
2022-08-02T01:44:58.194Z,6.20
2022-08-02T01:46:01.245Z,6.30
2022-08-02T01:47:07.626Z,6.20
2022-08-02T01:48:10.560Z,6.20
2022-08-02T01:49:17.652Z,5.90
2022-08-02T01:50:25.466Z,5.90
2022-08-02T01:51:48.002Z,5.90
2022-08-02T01:52:53.044Z,5.70
2022-08-02T01:53:55.803Z,5.90
2022-08-02T01:55:18.895Z,5.80
2022-08-02T01:56:21.858Z,5.70
2022-08-02T01:57:25.604Z,5.90
2022-08-02T01:58:31.674Z,5.70
2022-08-02T01:59:35.091Z,5.80
2022-08-02T02:00:40.082Z,5.80
2022-08-02T02:01:43.364Z,5.80
2022-08-02T02:02:47.812Z,5.80
2022-08-02T02:03:50.256Z,5.60
2022-08-02T02:04:52.907Z,5.50
2022-08-02T02:05:57.433Z,5.50
2022-08-02T02:07:00.600Z,5.40
2022-08-02T02:08:05.492Z,5.40
2022-08-02T02:09:08.089Z,5.20
2022-08-02T02:10:15.555Z,5.30
2022-08-02T02:12:06.216Z,5.20
2022-08-02T02:12:40.174Z,5.10
2022-08-02T02:13:42.501Z,5.00
2022-08-02T02:14:51.828Z,5.00
2022-08-02T02:15:54.797Z,5.00
2022-08-02T02:16:59.306Z,5.00
2022-08-02T02:18:13.193Z,5.00
2022-08-02T02:19:21.216Z,4.90
2022-08-02T02:20:24.912Z,4.80
2022-08-02T02:21:26.590Z,4.70
2022-08-02T02:22:28.337Z,4.70
2022-08-02T02:23:30.180Z,4.70
2022-08-02T02:24:37.277Z,4.70
2022-08-02T02:25:46.523Z,4.70
2022-08-02T02:26:52.519Z,4.60
2022-08-02T02:28:12.006Z,4.60
2022-08-02T02:29:15.099Z,5.10
2022-08-02T02:30:17.540Z,4.50
2022-08-02T02:31:20.727Z,4.50
2022-08-02T02:32:23.922Z,4.40
2022-08-02T02:33:29.355Z,4.40
2022-08-02T02:34:38.015Z,4.50
2022-08-02T02:35:41.508Z,4.70
2022-08-02T02:36:49.583Z,4.50
2022-08-02T02:37:52.790Z,4.70
2022-08-02T02:38:57.185Z,4.60
2022-08-02T02:39:59.796Z,4.60
2022-08-02T02:41:04.331Z,4.60
2022-08-02T02:42:09.302Z,4.90
2022-08-02T02:43:13.894Z,4.90
2022-08-02T02:44:20.274Z,4.90
2022-08-02T02:45:22.709Z,5.00
2022-08-02T02:46:26.987Z,4.90
2022-08-02T02:47:40.482Z,5.00
2022-08-02T02:48:43.898Z,5.00
2022-08-02T02:49:48.141Z,4.90
2022-08-02T02:50:50.821Z,5.10
2022-08-02T02:51:54.170Z,5.30
2022-08-02T02:52:56.946Z,5.50
2022-08-02T02:54:32.813Z,5.70
2022-08-02T02:55:22.789Z,5.70
2022-08-02T02:56:25.092Z,6.10
2022-08-02T02:57:26.953Z,6.00
2022-08-02T02:58:29.221Z,6.30
2022-08-02T02:59:32.622Z,6.50
2022-08-02T03:00:53.553Z,6.70
2022-08-02T03:01:57.874Z,6.70
2022-08-02T03:03:00.028Z,6.90
2022-08-02T03:04:05.720Z,6.90
2022-08-02T03:05:08.700Z,7.00
2022-08-02T03:06:15.683Z,6.90
2022-08-02T03:07:17.867Z,6.70
2022-08-02T03:08:20.577Z,6.80
2022-08-02T03:09:22.746Z,7.10
2022-08-02T03:10:24.723Z,6.90
2022-08-02T03:11:29.932Z,7.00
2022-08-02T03:12:34.567Z,7.20
2022-08-02T03:13:37.758Z,7.20
2022-08-02T03:14:43.501Z,7.40
2022-08-02T03:15:46.830Z,7.50
2022-08-02T03:16:51.470Z,7.60
2022-08-02T03:17:53.456Z,7.60
2022-08-02T03:18:57.209Z,7.80
2022-08-02T03:19:59.564Z,8.10
2022-08-02T03:21:06.349Z,8.00
2022-08-02T03:22:08.413Z,8.30
2022-08-02T03:23:10.245Z,8.50
2022-08-02T03:24:13.246Z,8.50
2022-08-02T03:25:16.223Z,8.60
2022-08-02T03:26:17.981Z,9.20
2022-08-02T03:27:19.617Z,9.20
2022-08-02T03:28:21.368Z,9.10
2022-08-02T03:29:23.084Z,9.10
2022-08-02T03:30:27.641Z,9.10
2022-08-02T03:31:29.644Z,9.20
2022-08-02T03:32:36.595Z,9.10
2022-08-02T03:33:39.689Z,9.10
2022-08-02T03:34:41.499Z,9.10
2022-08-02T03:35:47.560Z,9.10
2022-08-02T03:36:53.503Z,9.10
2022-08-02T03:37:57.634Z,9.20
2022-08-02T03:39:01.605Z,9.30
2022-08-02T03:40:07.293Z,9.30
2022-08-02T03:41:11.737Z,9.40
2022-08-02T03:42:15.419Z,9.70
2022-08-02T03:43:17.879Z,9.60
2022-08-02T03:44:20.010Z,9.90
2022-08-02T03:45:22.432Z,10.10
2022-08-02T03:46:25.301Z,10.20
2022-08-02T03:47:28.168Z,10.50
2022-08-02T03:48:34.224Z,10.80
2022-08-02T03:49:37.419Z,10.80
2022-08-02T03:50:40.130Z,11.00
2022-08-02T03:51:41.901Z,10.90
2022-08-02T03:52:45.242Z,11.10
2022-08-02T03:53:49.006Z,11.30
2022-08-02T03:54:51.037Z,11.50
2022-08-02T03:55:55.834Z,11.70
2022-08-02T03:56:57.786Z,11.50
2022-08-02T03:57:59.619Z,11.40
2022-08-02T03:59:09.119Z,11.60
2022-08-02T04:00:22.336Z,11.80
2022-08-02T04:01:24.109Z,11.70
2022-08-02T04:02:25.856Z,11.60
2022-08-02T04:03:27.888Z,11.70
2022-08-02T04:04:30.913Z,11.70
2022-08-02T04:05:32.647Z,11.70
2022-08-02T04:06:34.450Z,11.70
2022-08-02T04:08:32.703Z,12.10
2022-08-02T04:08:58.325Z,11.90
2022-08-02T04:09:59.987Z,12.00
2022-08-02T04:11:20.541Z,11.90
2022-08-02T04:12:22.197Z,11.80
2022-08-02T04:13:31.792Z,12.20
2022-08-02T04:14:37.560Z,12.20
2022-08-02T04:15:39.973Z,12.10
2022-08-02T04:16:50.197Z,12.10
2022-08-02T04:17:56.892Z,12.20
2022-08-02T04:19:03.113Z,12.30
2022-08-02T04:20:11.166Z,12.10
2022-08-02T04:21:17.189Z,12.40
2022-08-02T04:22:30.170Z,12.20
2022-08-02T04:23:36.570Z,12.10
2022-08-02T04:24:41.423Z,12.20
2022-08-02T04:25:45.028Z,12.20
2022-08-02T04:26:49.879Z,12.00
2022-08-02T04:28:17.752Z,12.10
2022-08-02T04:29:15.849Z,11.90
2022-08-02T04:30:18.356Z,11.70
2022-08-02T04:31:20.691Z,12.40
2022-08-02T04:32:22.887Z,11.60
2022-08-02T04:33:25.515Z,11.50
2022-08-02T04:34:27.528Z,11.80
2022-08-02T04:35:29.698Z,11.50
2022-08-02T04:36:31.994Z,11.40
2022-08-02T04:37:36.610Z,11.40
2022-08-02T04:38:38.421Z,11.60
2022-08-02T04:39:44.004Z,11.60
2022-08-02T04:40:54.105Z,11.90
2022-08-02T04:41:57.896Z,11.70
2022-08-02T04:43:10.345Z,11.90
2022-08-02T04:44:13.306Z,11.80
2022-08-02T04:45:17.188Z,12.00
2022-08-02T04:46:19.122Z,11.80
2022-08-02T04:48:01.597Z,11.80
2022-08-02T04:48:45.764Z,11.90
2022-08-02T04:49:47.506Z,11.80
2022-08-02T04:50:49.574Z,11.90
2022-08-02T04:51:51.440Z,12.00
2022-08-02T04:52:53.283Z,11.70
2022-08-02T04:53:55.172Z,11.60
2022-08-02T04:55:08.223Z,11.60
2022-08-02T04:56:10.155Z,11.50
2022-08-02T04:57:30.853Z,11.30
2022-08-02T04:58:40.872Z,11.10
2022-08-02T04:59:42.901Z,11.00
2022-08-02T05:00:45.171Z,11.00
2022-08-02T05:01:46.874Z,11.00
2022-08-02T05:02:49.058Z,11.00
2022-08-02T05:03:51.181Z,11.10
2022-08-02T05:04:53.029Z,11.80
2022-08-02T05:05:55.180Z,11.00
2022-08-02T05:06:57.111Z,11.10
2022-08-02T05:07:59.287Z,11.20
2022-08-02T05:09:01.020Z,11.10
2022-08-02T05:10:03.047Z,11.00
2022-08-02T05:11:05.626Z,10.70
2022-08-02T05:12:07.867Z,10.70
2022-08-02T05:13:09.710Z,10.40
2022-08-02T05:14:11.517Z,10.40
2022-08-02T05:15:16.544Z,10.30
2022-08-02T05:16:18.340Z,10.20
2022-08-02T05:17:20.277Z,10.10
2022-08-02T05:18:21.932Z,10.20
2022-08-02T05:19:23.566Z,10.00
2022-08-02T05:20:25.261Z,10.20
2022-08-02T05:21:26.998Z,10.00
2022-08-02T05:22:28.759Z,10.20
2022-08-02T05:23:30.438Z,10.40
2022-08-02T05:24:33.631Z,10.20
2022-08-02T05:25:35.389Z,10.20
2022-08-02T05:26:37.034Z,10.20
2022-08-02T05:27:38.838Z,9.90
2022-08-02T05:28:40.543Z,9.80
2022-08-02T05:29:51.241Z,9.80
2022-08-02T05:30:55.792Z,9.70
2022-08-02T05:31:57.462Z,9.90
2022-08-02T05:32:59.147Z,10.10
2022-08-02T05:34:01.241Z,9.90
2022-08-02T05:35:03.322Z,9.80
2022-08-02T05:36:05.335Z,9.60
2022-08-02T05:37:09.766Z,9.50
2022-08-02T05:38:11.786Z,9.30
2022-08-02T05:39:18.938Z,9.30
2022-08-02T05:40:25.515Z,9.40
2022-08-02T05:41:27.939Z,9.40
2022-08-02T05:42:32.691Z,9.40
2022-08-02T05:43:34.391Z,9.40
2022-08-02T05:44:36.702Z,8.90
2022-08-02T05:45:38.353Z,8.60
2022-08-02T05:46:40.071Z,8.70
2022-08-02T05:47:42.186Z,8.80
2022-08-02T05:48:44.990Z,8.90
2022-08-02T05:49:48.040Z,8.90
2022-08-02T05:50:55.947Z,8.60
2022-08-02T05:52:12.201Z,8.10
2022-08-02T05:53:50.577Z,7.90
2022-08-02T05:55:15.298Z,8.10
2022-08-02T05:56:18.076Z,7.50
2022-08-02T05:57:30.484Z,7.30
2022-08-02T05:58:43.214Z,7.50
2022-08-02T06:00:11.289Z,7.30
2022-08-02T06:01:16.336Z,6.60
2022-08-02T06:02:44.543Z,6.30
2022-08-02T06:03:52.166Z,5.90
2022-08-02T06:05:11.163Z,5.70
2022-08-02T06:06:14.895Z,4.50
2022-08-02T06:07:20.654Z,4.70
2022-08-02T06:08:28.261Z,4.20
2022-08-02T06:09:30.605Z,4.40
2022-08-02T06:10:34.105Z,4.30
2022-08-02T06:11:39.117Z,3.90
2022-08-02T06:12:54.288Z,3.30
2022-08-02T06:13:56.443Z,2.30
2022-08-02T06:15:00.103Z,2.30
2022-08-02T06:16:03.112Z,2.30
2022-08-02T06:17:06.368Z,2.40
2022-08-02T06:20:25.930Z,1.00
2022-08-02T06:22:33.088Z,1.00
2022-08-02T06:22:52.201Z,1.00
2022-08-02T06:23:58.657Z,1.00
2022-08-02T06:25:03.466Z,1.00
2022-08-02T06:26:08.016Z,1.00
2022-08-02T06:27:10.388Z,1.00
2022-08-02T06:28:15.137Z,1.00
2022-08-02T06:29:17.339Z,1.00
2022-08-02T06:30:19.186Z,1.00
2022-08-02T06:31:20.981Z,1.00
2022-08-02T06:32:23.239Z,1.00
2022-08-02T06:33:25.286Z,1.00
2022-08-02T06:34:26.960Z,1.00
2022-08-02T06:35:57.301Z,1.00
2022-08-02T06:37:13.988Z,1.00
2022-08-02T06:38:24.224Z,1.00
2022-08-02T06:39:34.921Z,1.00
2022-08-02T06:40:49.530Z,1.00
2022-08-02T06:41:55.948Z,1.00
2022-08-02T06:43:13.918Z,1.00
2022-08-02T06:45:38.442Z,1.00
2022-08-02T06:47:11.272Z,1.00
2022-08-02T06:48:03.485Z,1.00
2022-08-02T06:49:05.713Z,1.00
2022-08-02T06:50:08.158Z,1.00
2022-08-02T06:51:10.349Z,1.00
2022-08-02T06:52:12.624Z,1.00
2022-08-02T06:53:14.664Z,1.00
2022-08-02T06:54:21.942Z,1.00
2022-08-02T06:55:23.843Z,1.00
2022-08-02T06:56:25.844Z,1.00
2022-08-02T06:57:29.011Z,1.00
2022-08-02T06:58:31.132Z,1.00
2022-08-02T06:59:32.917Z,1.00
2022-08-02T07:00:36.951Z,1.00
2022-08-02T07:01:39.248Z,1.00
2022-08-02T07:02:41.303Z,1.00
2022-08-02T07:03:46.181Z,1.00
2022-08-02T07:04:48.234Z,1.00
2022-08-02T07:05:49.943Z,1.00
2022-08-02T07:06:52.199Z,1.00
2022-08-02T07:07:54.040Z,1.00
2022-08-02T07:09:19.590Z,1.00
2022-08-02T07:10:18.870Z,1.00
2022-08-02T07:11:20.896Z,1.00
2022-08-02T07:12:22.811Z,1.00
2022-08-02T07:13:24.660Z,1.00
2022-08-02T07:14:26.441Z,1.00
2022-08-02T07:15:28.253Z,1.00
2022-08-02T07:16:30.068Z,1.00
2022-08-02T07:17:31.934Z,1.00
2022-08-02T07:18:35.002Z,1.00
2022-08-02T07:19:37.950Z,1.00
2022-08-02T07:20:40.761Z,1.00
2022-08-02T07:21:56.328Z,1.00
2022-08-02T07:23:02.370Z,1.00
2022-08-02T07:24:04.628Z,1.00
2022-08-02T07:25:07.379Z,1.00
2022-08-02T07:26:09.600Z,1.00
2022-08-02T07:27:12.542Z,1.00
2022-08-02T07:28:24.080Z,1.00
2022-08-02T07:29:26.548Z,1.00
2022-08-02T07:30:32.940Z,1.00
2022-08-02T07:31:35.866Z,1.00
2022-08-02T07:32:37.925Z,1.00
2022-08-02T07:33:46.828Z,1.00
2022-08-02T07:34:54.201Z,1.00
2022-08-02T07:35:58.654Z,1.00
2022-08-02T07:37:04.455Z,1.00
2022-08-02T07:38:09.043Z,1.00
2022-08-02T07:39:11.995Z,1.00
2022-08-02T07:40:20.208Z,1.00
2022-08-02T07:41:22.948Z,1.00
2022-08-02T07:42:25.051Z,1.00
2022-08-02T07:43:26.919Z,1.00
2022-08-02T07:44:36.121Z,1.00
2022-08-02T07:45:55.774Z,1.00
2022-08-02T07:47:00.309Z,1.00
2022-08-02T07:48:02.290Z,1.00
2022-08-02T07:49:05.708Z,1.00
2022-08-02T07:50:08.745Z,1.00
2022-08-02T07:51:12.985Z,1.00
2022-08-02T07:52:19.028Z,1.00
2022-08-02T07:53:20.981Z,1.00
2022-08-02T07:54:43.018Z,1.00
2022-08-02T07:55:44.776Z,1.00
2022-08-02T07:56:46.990Z,1.00
2022-08-02T07:57:53.333Z,1.00
2022-08-02T07:58:55.373Z,1.00
2022-08-02T07:59:57.148Z,1.00
2022-08-02T08:00:58.902Z,1.00
2022-08-02T08:02:02.923Z,1.00
2022-08-02T08:03:05.631Z,1.00
2022-08-02T08:04:07.630Z,1.00
2022-08-02T08:05:12.712Z,1.00
2022-08-02T08:06:15.000Z,1.00
2022-08-02T08:07:18.085Z,1.00
2022-08-02T08:08:20.302Z,1.00
2022-08-02T08:09:22.527Z,1.00
2022-08-02T08:10:24.755Z,1.00
2022-08-02T08:11:27.589Z,1.00
2022-08-02T08:12:30.735Z,1.00
2022-08-02T08:13:32.655Z,1.00
2022-08-02T08:14:35.653Z,1.00
2022-08-02T08:15:38.402Z,1.00
2022-08-02T08:16:40.264Z,1.00
2022-08-02T08:17:42.025Z,1.00
2022-08-02T08:18:44.388Z,1.00
2022-08-02T08:19:51.223Z,1.00
2022-08-02T08:20:53.633Z,1.00
2022-08-02T08:21:56.656Z,1.00
2022-08-02T08:22:59.562Z,1.00
2022-08-02T08:24:01.669Z,1.00
2022-08-02T08:25:04.212Z,1.00
2022-08-02T08:26:10.764Z,1.00
2022-08-02T08:27:15.687Z,1.00
2022-08-02T08:28:17.449Z,1.00
2022-08-02T08:29:19.264Z,1.00
2022-08-02T08:30:22.138Z,1.00
2022-08-02T08:31:24.166Z,1.00
2022-08-02T08:32:27.194Z,1.00
2022-08-02T08:33:29.249Z,1.00
2022-08-02T08:34:31.538Z,1.00
2022-08-02T08:35:33.389Z,1.00
2022-08-02T08:36:36.906Z,1.00
2022-08-02T08:37:39.430Z,1.00
2022-08-02T08:38:41.341Z,1.00
2022-08-02T08:39:56.963Z,1.00
2022-08-02T08:41:00.473Z,1.00
2022-08-02T08:42:02.631Z,1.00
2022-08-02T08:43:05.182Z,1.00
2022-08-02T08:44:11.358Z,1.00
2022-08-02T08:45:13.723Z,1.00
2022-08-02T08:46:29.587Z,1.00
2022-08-02T08:47:42.232Z,1.00
2022-08-02T08:48:50.093Z,1.00
2022-08-02T08:49:54.990Z,1.00
2022-08-02T08:51:00.850Z,1.00
2022-08-02T08:52:06.107Z,1.00
2022-08-02T08:53:12.325Z,1.00
2022-08-02T08:54:17.595Z,1.00
2022-08-02T08:55:25.238Z,1.00
2022-08-02T08:56:36.310Z,1.00
2022-08-02T08:57:42.607Z,1.00
2022-08-02T08:58:47.501Z,1.00
2022-08-02T08:59:49.524Z,1.00
2022-08-02T09:00:51.619Z,1.00
2022-08-02T09:01:56.438Z,1.00
2022-08-02T09:03:00.740Z,1.00
2022-08-02T09:04:03.003Z,1.00
2022-08-02T09:05:05.158Z,1.00
2022-08-02T09:06:07.251Z,1.00
2022-08-02T09:07:08.954Z,1.00
2022-08-02T09:08:16.330Z,1.00
2022-08-02T09:09:19.876Z,1.00
2022-08-02T09:10:41.795Z,1.00
2022-08-02T09:11:45.236Z,1.00
2022-08-02T09:12:50.339Z,1.00
2022-08-02T09:13:58.534Z,1.00
2022-08-02T09:15:05.354Z,1.00
2022-08-02T09:16:12.870Z,1.00
2022-08-02T09:17:16.456Z,1.00
2022-08-02T09:18:18.676Z,1.00
2022-08-02T09:19:27.341Z,1.00
2022-08-02T09:20:30.885Z,1.00
2022-08-02T09:21:37.621Z,1.00
2022-08-02T09:22:39.440Z,1.00
2022-08-02T09:23:46.378Z,1.00
2022-08-02T09:24:51.653Z,1.00
2022-08-02T09:25:59.434Z,1.00
2022-08-02T09:27:17.735Z,1.00
2022-08-02T09:28:19.528Z,1.00
2022-08-02T09:29:24.876Z,1.00
2022-08-02T09:30:31.283Z,1.00
2022-08-02T09:31:42.727Z,1.00
2022-08-02T09:32:52.776Z,1.00
2022-08-02T09:34:02.050Z,1.00
2022-08-02T09:35:05.724Z,1.00
2022-08-02T09:36:08.599Z,1.00
2022-08-02T09:37:28.381Z,1.00
2022-08-02T09:38:31.324Z,1.00
2022-08-02T09:39:46.589Z,1.00
2022-08-02T09:40:49.696Z,1.00
2022-08-02T09:41:51.488Z,1.00
2022-08-02T09:43:01.413Z,1.00
2022-08-02T09:44:10.676Z,1.00
2022-08-02T09:45:15.908Z,1.00
2022-08-02T09:46:30.396Z,1.00
2022-08-02T09:47:37.196Z,1.00
2022-08-02T09:48:54.738Z,1.00
2022-08-02T09:49:59.388Z,1.00
2022-08-02T09:51:01.882Z,1.00
2022-08-02T09:52:05.799Z,1.00
2022-08-02T09:53:15.748Z,1.00
2022-08-02T09:54:25.772Z,1.00
2022-08-02T09:55:27.593Z,1.00
2022-08-02T09:56:49.897Z,1.00
2022-08-02T09:57:53.141Z,1.00
2022-08-02T09:58:57.022Z,1.00
2022-08-02T10:00:01.895Z,1.00
2022-08-02T10:01:05.349Z,1.00
2022-08-02T10:02:13.771Z,1.00
2022-08-02T10:03:22.104Z,1.00
2022-08-02T10:04:34.209Z,1.00
2022-08-02T10:06:02.389Z,1.00
2022-08-02T10:07:06.128Z,1.00
2022-08-02T10:08:09.563Z,1.00
2022-08-02T10:09:15.026Z,1.00
2022-08-02T10:10:17.108Z,1.00
2022-08-02T10:11:21.280Z,1.00
2022-08-02T10:12:23.627Z,1.00
2022-08-02T10:13:26.842Z,1.00
2022-08-02T10:14:29.103Z,1.00
2022-08-02T10:15:31.958Z,1.00
2022-08-02T10:16:40.069Z,1.00
2022-08-02T10:17:43.733Z,1.00
2022-08-02T10:18:45.754Z,1.00
2022-08-02T10:20:02.467Z,1.00
2022-08-02T10:21:10.389Z,1.00
2022-08-02T10:22:21.168Z,1.00
2022-08-02T10:23:26.922Z,1.00
2022-08-02T10:24:38.327Z,1.00
2022-08-02T10:25:42.417Z,1.00
2022-08-02T10:26:48.724Z,1.00
2022-08-02T10:28:04.752Z,1.00
2022-08-02T10:29:09.825Z,1.00
2022-08-02T10:30:11.960Z,1.00
2022-08-02T10:31:19.228Z,1.00
2022-08-02T10:32:30.160Z,1.00
2022-08-02T10:33:35.596Z,1.00
2022-08-02T10:34:45.366Z,1.00
2022-08-02T10:36:06.849Z,1.00
2022-08-02T10:37:11.524Z,1.00
2022-08-02T10:38:20.755Z,1.00
2022-08-02T10:39:22.636Z,1.00
2022-08-02T10:40:26.707Z,1.00
2022-08-02T10:41:45.243Z,1.00
2022-08-02T10:42:50.528Z,1.00
2022-08-02T10:43:54.123Z,1.00
2022-08-02T10:45:15.447Z,1.00
2022-08-02T10:46:35.689Z,1.00
2022-08-02T10:47:37.597Z,1.00
2022-08-02T10:49:38.795Z,1.00
2022-08-02T10:50:53.068Z,1.00
2022-08-02T10:52:00.855Z,1.00
2022-08-02T10:53:29.236Z,1.00
2022-08-02T10:54:56.424Z,1.00
2022-08-02T10:56:00.814Z,1.00
2022-08-02T10:57:10.615Z,1.00
2022-08-02T10:58:26.084Z,1.00
2022-08-02T10:59:37.031Z,1.00
2022-08-02T11:00:38.926Z,1.00
2022-08-02T11:01:44.567Z,1.00
2022-08-02T11:02:52.952Z,1.00
2022-08-02T11:03:59.808Z,1.00
2022-08-02T11:05:07.508Z,1.00
2022-08-02T11:06:25.234Z,1.00
2022-08-02T11:07:50.975Z,1.00
2022-08-02T11:09:33.959Z,1.00
2022-08-02T11:10:39.450Z,1.00
2022-08-02T11:12:02.290Z,1.00
2022-08-02T11:13:14.266Z,1.00
2022-08-02T11:14:16.371Z,1.00
2022-08-02T11:15:19.285Z,1.00
2022-08-02T11:16:22.241Z,1.00
2022-08-02T11:17:25.072Z,1.00
2022-08-02T11:18:53.405Z,1.00
2022-08-02T11:20:14.055Z,1.00
2022-08-02T11:21:25.670Z,1.00
2022-08-02T11:22:27.434Z,1.00
2022-08-02T11:23:46.099Z,1.00
2022-08-02T11:24:47.968Z,1.00
2022-08-02T11:26:03.667Z,1.00
2022-08-02T11:27:18.967Z,1.00
2022-08-02T11:28:25.763Z,1.00
2022-08-02T11:29:38.221Z,1.00
2022-08-02T11:30:40.686Z,1.00
2022-08-02T11:31:46.261Z,1.00
2022-08-02T11:32:48.936Z,1.00
2022-08-02T11:33:51.386Z,1.00
2022-08-02T11:34:55.002Z,1.00
2022-08-02T11:36:02.596Z,1.00
2022-08-02T11:37:04.719Z,1.00
2022-08-02T11:38:17.755Z,1.00
2022-08-02T11:39:24.026Z,1.00
2022-08-02T11:40:37.748Z,1.00
2022-08-02T11:41:47.622Z,1.00
2022-08-02T11:42:54.146Z,1.00
2022-08-02T11:43:58.607Z,1.00
2022-08-02T11:45:00.828Z,1.00
2022-08-02T11:46:04.595Z,1.00
2022-08-02T11:47:10.368Z,1.00
2022-08-02T11:48:13.500Z,1.00
2022-08-02T11:49:18.143Z,1.00
2022-08-02T11:50:30.437Z,1.00
2022-08-02T11:51:32.474Z,1.00
2022-08-02T11:52:35.688Z,1.00
2022-08-02T11:53:51.490Z,1.00
2022-08-02T11:54:53.351Z,1.00
2022-08-02T11:55:57.595Z,1.00
2022-08-02T11:57:21.242Z,1.00
2022-08-02T11:58:23.418Z,1.00
2022-08-02T11:59:25.279Z,1.00
2022-08-02T12:00:30.596Z,1.00
2022-08-02T12:01:36.730Z,1.00
2022-08-02T12:02:48.598Z,1.00
2022-08-02T12:03:50.703Z,1.00
2022-08-02T12:04:58.855Z,1.00
2022-08-02T12:06:06.484Z,1.00
2022-08-02T12:07:12.753Z,1.00
2022-08-02T12:08:18.998Z,1.00
2022-08-02T12:09:25.276Z,1.00
2022-08-02T12:10:27.174Z,1.00
2022-08-02T12:11:28.928Z,1.00
2022-08-02T12:12:52.156Z,1.00
2022-08-02T12:13:57.713Z,1.00
2022-08-02T12:14:59.469Z,1.00
2022-08-02T12:16:31.164Z,1.00
2022-08-02T12:17:51.757Z,1.00
2022-08-02T12:19:12.374Z,1.00
2022-08-02T12:20:17.411Z,1.00
2022-08-02T12:21:25.174Z,1.00
2022-08-02T12:22:28.118Z,1.00
2022-08-02T12:23:30.277Z,1.00
2022-08-02T12:24:32.111Z,1.00
2022-08-02T12:25:35.636Z,1.00
2022-08-02T12:26:48.156Z,1.00
2022-08-02T12:27:53.249Z,1.00
2022-08-02T12:28:57.916Z,1.00
2022-08-02T12:30:03.755Z,1.00
2022-08-02T12:31:07.152Z,1.00
2022-08-02T12:32:10.346Z,1.00
2022-08-02T12:33:13.423Z,1.00
2022-08-02T12:34:18.371Z,1.00
2022-08-02T12:35:26.010Z,1.00
2022-08-02T12:36:29.978Z,1.00
2022-08-02T12:37:32.162Z,1.00
2022-08-02T12:38:33.956Z,1.00
2022-08-02T12:39:44.032Z,1.00
2022-08-02T12:40:49.966Z,1.00
2022-08-02T12:41:57.729Z,1.00
2022-08-02T12:43:07.908Z,1.00
2022-08-02T12:44:17.090Z,1.00
2022-08-02T12:45:21.855Z,1.00
2022-08-02T12:46:25.249Z,1.00
2022-08-02T12:47:35.802Z,1.00
2022-08-02T12:49:02.358Z,1.00
2022-08-02T12:50:34.852Z,1.00
2022-08-02T12:51:56.689Z,1.00
2022-08-02T12:53:16.739Z,1.00
2022-08-02T12:54:31.028Z,1.00
2022-08-02T12:55:59.789Z,1.00
2022-08-02T12:56:56.151Z,1.00
2022-08-02T12:58:03.263Z,1.00
2022-08-02T12:59:05.772Z,1.00
2022-08-02T13:00:09.947Z,1.00
2022-08-02T13:01:14.149Z,1.00
2022-08-02T13:02:18.152Z,1.00
2022-08-02T13:04:12.152Z,1.00
2022-08-02T13:04:50.108Z,1.00
2022-08-02T13:05:57.105Z,1.00
2022-08-02T13:07:05.948Z,1.00
2022-08-02T13:08:08.120Z,1.00
2022-08-02T13:09:15.065Z,1.00
2022-08-02T13:10:17.274Z,1.00
2022-08-02T13:11:19.057Z,1.00
2022-08-02T13:12:21.003Z,1.00
2022-08-02T13:13:22.869Z,1.00
2022-08-02T13:14:24.607Z,1.00
2022-08-02T13:15:50.281Z,1.00
2022-08-02T13:16:49.342Z,1.00
2022-08-02T13:17:51.193Z,1.00
2022-08-02T13:18:53.097Z,1.00
2022-08-02T13:19:54.826Z,1.00
2022-08-02T13:20:56.748Z,1.00
2022-08-02T13:22:03.904Z,1.00
2022-08-02T13:23:05.901Z,1.00
2022-08-02T13:24:33.133Z,1.00
2022-08-02T13:25:32.409Z,1.00
2022-08-02T13:26:34.315Z,1.00
2022-08-02T13:27:38.003Z,1.00
2022-08-02T13:28:43.038Z,1.00
2022-08-02T13:29:45.074Z,1.00
2022-08-02T13:30:49.065Z,1.00
2022-08-02T13:31:50.926Z,1.00
2022-08-02T13:32:52.780Z,1.00
2022-08-02T13:33:55.909Z,1.00
2022-08-02T13:34:58.736Z,1.00
2022-08-02T13:36:00.812Z,1.00
2022-08-02T13:37:03.271Z,1.00
2022-08-02T13:38:06.646Z,1.00
2022-08-02T13:39:09.712Z,1.00
2022-08-02T13:40:21.839Z,1.00
2022-08-02T13:41:24.266Z,1.00
2022-08-02T13:42:26.099Z,1.00
2022-08-02T13:43:54.777Z,1.00
2022-08-02T13:44:50.291Z,1.00
2022-08-02T13:45:52.195Z,1.00
2022-08-02T13:46:53.946Z,1.00
2022-08-02T13:48:04.349Z,1.00
2022-08-02T13:49:08.498Z,1.00
2022-08-02T13:50:17.534Z,1.00
2022-08-02T13:51:19.410Z,1.00
2022-08-02T13:52:21.217Z,1.00
2022-08-02T13:53:23.479Z,1.00
2022-08-02T13:54:25.257Z,1.00
2022-08-02T13:55:28.362Z,1.00
2022-08-02T13:56:35.352Z,1.00
2022-08-02T13:57:37.958Z,1.00
2022-08-02T13:58:40.355Z,1.00
2022-08-02T13:59:56.191Z,1.00
2022-08-02T14:01:03.336Z,1.00
2022-08-02T14:02:05.644Z,1.00
2022-08-02T14:03:12.248Z,1.00
2022-08-02T14:04:15.141Z,1.00
2022-08-02T14:05:18.699Z,1.00
2022-08-02T14:06:40.430Z,1.00
2022-08-02T14:07:42.197Z,1.00
2022-08-02T14:08:43.935Z,1.00
2022-08-02T14:09:45.890Z,1.00
2022-08-02T14:10:50.362Z,1.00
2022-08-02T14:11:53.130Z,1.00
2022-08-02T14:12:56.494Z,1.00
2022-08-02T14:13:58.898Z,1.00
2022-08-02T14:15:00.964Z,1.00
2022-08-02T14:16:02.898Z,1.00
2022-08-02T14:17:04.759Z,1.00
2022-08-02T14:18:06.562Z,1.00
2022-08-02T14:19:16.119Z,1.00
2022-08-02T14:20:23.089Z,1.00
2022-08-02T14:21:32.592Z,1.00
2022-08-02T14:22:49.233Z,1.00
2022-08-02T14:23:51.270Z,1.00
2022-08-02T14:24:53.037Z,1.00
2022-08-02T14:25:54.809Z,1.00
2022-08-02T14:26:56.675Z,1.00
2022-08-02T14:27:58.675Z,1.00
2022-08-02T14:29:00.752Z,1.00
2022-08-02T14:30:03.137Z,1.00
2022-08-02T14:31:05.151Z,1.00
2022-08-02T14:32:10.748Z,1.00
2022-08-02T14:33:13.110Z,1.00
2022-08-02T14:34:14.975Z,1.00
2022-08-02T14:35:17.313Z,1.00
2022-08-02T14:36:27.442Z,1.00
2022-08-02T14:37:29.970Z,1.00
2022-08-02T14:38:33.051Z,1.00
2022-08-02T14:39:43.284Z,1.00
2022-08-02T14:40:56.723Z,1.00
2022-08-02T14:42:01.385Z,1.00
2022-08-02T14:43:05.435Z,1.00
2022-08-02T14:44:10.055Z,1.00